Terminal Aerodrome Forecast
Issued by NWS

Home | Current Version | Previous Version | Text Only | Print | Product List | Glossary On
Versions: 1 2 3 4 5 6 7 8 9 10 11 12 13 14 15 16 17 18
000
FTUS45 KABQ 192300
TAFFMN
TAF
KFMN 192338Z 2000/2024 VRB06KT P6SM VCTS BKN080CB
      TEMPO 2000/2002 VRB15G25KT
     FM200300 09008KT P6SM SCT050 BKN100
     FM201500 12008KT P6SM SCT050 SCT120
     FM201900 16008KT P6SM VCTS SCT070CB BKN130=

USA.gov is the U.S. government's official web portal to all federal, state and local government web resources and services.